createdAt,value
2018-09-06T00:01:59.555Z,82.70
2018-09-06T00:04:31.142Z,82.40
2018-09-06T00:07:02.296Z,82.40
2018-09-06T00:09:38.857Z,81.80
2018-09-06T00:12:11.056Z,81.80
2018-09-06T00:14:41.489Z,81.80
2018-09-06T00:17:12.260Z,82.10
2018-09-06T00:19:42.708Z,81.90
2018-09-06T00:22:16.619Z,81.80
2018-09-06T00:24:46.809Z,81.80
2018-09-06T00:27:25.139Z,81.90
2018-09-06T00:29:58.004Z,82.40
2018-09-06T00:32:28.445Z,82.40
2018-09-06T00:35:02.324Z,82.50
2018-09-06T00:37:32.737Z,82.90
2018-09-06T00:40:04.203Z,82.80
2018-09-06T00:42:34.098Z,82.40
2018-09-06T00:45:06.611Z,82.30
2018-09-06T00:47:38.481Z,82.60
2018-09-06T00:50:16.001Z,82.50
2018-09-06T00:52:49.486Z,82.50
2018-09-06T00:55:30.315Z,82.70
2018-09-06T00:58:01.984Z,82.70
2018-09-06T01:00:41.927Z,82.70
2018-09-06T01:03:12.237Z,82.80
2018-09-06T01:05:43.297Z,82.90
2018-09-06T01:08:15.905Z,82.90
2018-09-06T01:10:47.986Z,83.20
2018-09-06T01:13:18.965Z,83.20
2018-09-06T01:15:58.265Z,83.20
2018-09-06T01:21:06.011Z,84.50
2018-09-06T01:23:38.310Z,85.20
2018-09-06T01:26:13.614Z,84.90
2018-09-06T01:28:44.097Z,84.60
2018-09-06T01:31:17.246Z,84.50
2018-09-06T01:33:50.698Z,84.60
2018-09-06T01:36:26.807Z,84.20
2018-09-06T01:38:57.374Z,85.00
2018-09-06T01:41:27.655Z,85.00
2018-09-06T01:43:57.818Z,85.60
2018-09-06T01:46:28.310Z,86.00
2018-09-06T01:48:58.709Z,86.40
2018-09-06T01:51:32.946Z,86.30
2018-09-06T01:54:05.607Z,86.60
2018-09-06T01:56:39.639Z,86.80
2018-09-06T01:59:14.872Z,87.40
2018-09-06T02:01:45.264Z,87.80
2018-09-06T02:04:16.599Z,88.10
2018-09-06T02:06:47.078Z,87.90
2018-09-06T02:09:18.286Z,87.40
2018-09-06T02:11:49.235Z,87.00
2018-09-06T02:14:23.518Z,86.00
2018-09-06T02:16:55.046Z,86.60
2018-09-06T02:19:25.614Z,86.60
2018-09-06T02:21:56.619Z,86.20
2018-09-06T02:24:30.385Z,86.00
2018-09-06T02:27:02.576Z,86.00
2018-09-06T02:29:34.460Z,86.00
2018-09-06T02:32:05.674Z,85.60
2018-09-06T02:34:37.146Z,85.70
2018-09-06T02:37:07.334Z,85.70
2018-09-06T02:39:39.087Z,85.50
2018-09-06T02:42:09.734Z,85.50
2018-09-06T02:44:41.179Z,85.80
2018-09-06T02:47:12.536Z,85.70
2018-09-06T02:49:48.077Z,85.70
2018-09-06T02:52:20.448Z,85.60
2018-09-06T02:54:50.561Z,85.70
2018-09-06T02:57:21.075Z,86.40
2018-09-06T02:59:51.744Z,86.50
2018-09-06T03:02:22.343Z,86.40
2018-09-06T03:04:53.219Z,86.70
2018-09-06T03:07:24.070Z,86.80
2018-09-06T03:09:54.254Z,86.70
2018-09-06T03:12:24.937Z,86.40
2018-09-06T03:14:57.805Z,86.60
2018-09-06T03:17:30.427Z,86.60
2018-09-06T03:20:08.526Z,86.90
2018-09-06T03:22:40.711Z,86.90
2018-09-06T03:25:19.808Z,87.30
2018-09-06T03:27:51.169Z,87.10
2018-09-06T03:30:22.278Z,87.30
2018-09-06T03:32:54.026Z,87.40
2018-09-06T03:35:24.367Z,87.90
2018-09-06T03:37:56.145Z,87.60
2018-09-06T03:40:28.431Z,87.70
2018-09-06T03:43:03.014Z,88.00
2018-09-06T03:45:37.332Z,87.60
2018-09-06T03:48:08.547Z,87.30
2018-09-06T03:50:43.442Z,87.20
2018-09-06T03:53:16.794Z,86.90
2018-09-06T03:55:46.989Z,86.90
2018-09-06T03:58:29.387Z,87.10
2018-09-06T04:00:59.840Z,86.80
2018-09-06T04:03:31.310Z,86.60
2018-09-06T04:06:01.916Z,86.70
2018-09-06T04:08:43.152Z,86.40
2018-09-06T04:11:15.800Z,86.40
2018-09-06T04:13:46.562Z,86.30
2018-09-06T04:16:17.877Z,86.60
2018-09-06T04:18:56.799Z,86.70
2018-09-06T04:21:28.907Z,86.80
2018-09-06T04:24:00.390Z,86.80
2018-09-06T04:26:31.566Z,87.20
2018-09-06T04:29:02.927Z,87.20
2018-09-06T04:31:35.607Z,87.40
2018-09-06T04:34:08.510Z,87.40
2018-09-06T04:36:41.176Z,87.80
2018-09-06T04:39:12.970Z,88.10
2018-09-06T04:41:44.971Z,88.00
2018-09-06T04:44:16.748Z,87.80
2018-09-06T04:46:50.766Z,87.90
2018-09-06T04:49:22.444Z,88.10
2018-09-06T04:51:54.859Z,88.00
2018-09-06T04:54:26.528Z,88.20
2018-09-06T04:56:58.507Z,88.20
2018-09-06T04:59:29.367Z,88.30
2018-09-06T05:02:00.107Z,88.40
2018-09-06T05:04:31.543Z,88.50
2018-09-06T05:07:03.109Z,88.70
2018-09-06T05:09:33.995Z,88.90
2018-09-06T05:12:06.359Z,88.80
2018-09-06T05:14:37.538Z,88.90
2018-09-06T05:17:07.606Z,89.00
2018-09-06T05:19:38.786Z,89.10
2018-09-06T05:22:09.728Z,89.20
2018-09-06T05:24:40.575Z,89.10
2018-09-06T05:27:11.427Z,89.00
2018-09-06T05:29:42.480Z,88.90
2018-09-06T05:32:13.326Z,88.80
2018-09-06T05:34:44.682Z,88.70
2018-09-06T05:37:17.618Z,89.20
2018-09-06T05:39:49.962Z,89.50
2018-09-06T05:42:20.866Z,89.60
2018-09-06T05:44:51.209Z,89.40
2018-09-06T05:47:27.314Z,89.40
2018-09-06T05:49:57.998Z,88.90
2018-09-06T05:52:31.020Z,88.70
2018-09-06T05:55:02.865Z,88.70
2018-09-06T05:57:33.178Z,88.40
2018-09-06T06:00:08.745Z,87.90
2018-09-06T06:02:40.306Z,87.60
2018-09-06T06:05:11.703Z,87.40
2018-09-06T06:07:58.614Z,87.00
2018-09-06T06:10:29.715Z,86.80
2018-09-06T06:13:00.648Z,86.80
2018-09-06T06:15:35.910Z,86.70
2018-09-06T06:18:09.706Z,86.90
2018-09-06T06:20:39.875Z,86.80
2018-09-06T06:23:10.167Z,87.10
2018-09-06T06:25:41.509Z,87.10
2018-09-06T06:28:12.079Z,86.90
2018-09-06T06:30:43.387Z,87.10
2018-09-06T06:33:14.676Z,87.10
2018-09-06T06:35:46.046Z,87.00
2018-09-06T06:38:18.371Z,87.50
2018-09-06T06:40:49.937Z,87.10
2018-09-06T06:43:20.497Z,85.80
2018-09-06T06:46:01.362Z,85.30
2018-09-06T06:48:31.962Z,84.30
2018-09-06T06:51:05.026Z,83.60
2018-09-06T06:53:35.866Z,82.70
2018-09-06T06:56:08.146Z,81.70
2018-09-06T06:58:40.490Z,81.20
2018-09-06T07:01:10.118Z,80.60
2018-09-06T07:03:40.168Z,80.00
2018-09-06T07:06:09.709Z,79.70
2018-09-06T07:08:40.446Z,79.30
2018-09-06T07:11:09.824Z,79.00
2018-09-06T07:13:39.405Z,79.10
2018-09-06T07:16:09.009Z,78.70
2018-09-06T07:18:46.498Z,78.50
2018-09-06T07:21:15.942Z,78.10
2018-09-06T07:23:44.463Z,77.00
2018-09-06T07:26:13.064Z,76.50
2018-09-06T07:28:42.699Z,75.10
2018-09-06T07:31:12.920Z,73.90
2018-09-06T07:33:41.476Z,73.10
2018-09-06T07:36:10.049Z,71.70
2018-09-06T07:38:38.601Z,70.70
2018-09-06T07:41:07.221Z,69.90
2018-09-06T07:43:35.806Z,69.00
2018-09-06T07:46:04.592Z,68.90
2018-09-06T07:48:33.152Z,68.70
2018-09-06T07:51:02.290Z,68.10
2018-09-06T07:53:30.813Z,67.50
2018-09-06T07:56:00.273Z,67.10
2018-09-06T07:58:28.808Z,67.00
2018-09-06T08:00:57.474Z,66.80
2018-09-06T08:03:26.095Z,66.50
2018-09-06T08:05:54.857Z,66.50
2018-09-06T08:08:23.425Z,66.60
2018-09-06T08:10:51.992Z,66.90
2018-09-06T08:13:20.554Z,66.90
2018-09-06T08:15:49.099Z,66.90
2018-09-06T08:18:17.652Z,66.80
2018-09-06T08:20:46.226Z,66.50
2018-09-06T08:23:14.779Z,66.40
2018-09-06T08:25:43.342Z,66.30
2018-09-06T08:28:11.955Z,66.10
2018-09-06T08:30:40.618Z,65.50
2018-09-06T08:33:09.306Z,64.40
2018-09-06T08:35:37.919Z,63.90
2018-09-06T08:38:06.600Z,63.80
2018-09-06T08:40:35.280Z,63.00
2018-09-06T08:43:03.971Z,62.20
2018-09-06T08:45:32.550Z,61.60
2018-09-06T08:48:01.072Z,61.20
2018-09-06T08:50:29.769Z,60.90
2018-09-06T08:52:58.453Z,61.00
2018-09-06T08:55:27.037Z,61.50
2018-09-06T08:57:55.716Z,62.20
2018-09-06T09:00:24.300Z,61.90
2018-09-06T09:02:52.935Z,61.80
2018-09-06T09:05:21.499Z,62.80
2018-09-06T09:07:50.033Z,61.70
2018-09-06T09:10:18.591Z,61.60
2018-09-06T09:12:47.166Z,61.50
2018-09-06T09:15:15.688Z,61.40
2018-09-06T09:17:44.258Z,61.10
2018-09-06T09:20:12.816Z,60.80
2018-09-06T09:22:41.422Z,60.10
2018-09-06T09:25:10.014Z,59.70
2018-09-06T09:27:38.664Z,59.30
2018-09-06T09:30:07.240Z,58.80
2018-09-06T09:32:35.796Z,58.10
2018-09-06T09:35:04.356Z,57.80
2018-09-06T09:37:32.964Z,56.90
2018-09-06T09:40:01.875Z,56.40
2018-09-06T09:42:30.462Z,55.90
2018-09-06T09:44:59.037Z,55.10
2018-09-06T09:49:55.315Z,54.60
2018-09-06T09:52:24.576Z,53.80
2018-09-06T09:54:53.135Z,53.20
2018-09-06T09:57:21.697Z,52.80
2018-09-06T09:59:50.255Z,52.40
2018-09-06T10:02:24.150Z,52.30
2018-09-06T10:04:56.860Z,51.50
2018-09-06T10:07:30.631Z,51.10
2018-09-06T10:09:59.165Z,51.00
2018-09-06T10:12:27.872Z,51.00
2018-09-06T10:14:56.407Z,50.40
2018-09-06T10:17:24.984Z,50.30
2018-09-06T10:19:53.604Z,49.90
2018-09-06T10:22:22.166Z,49.80
2018-09-06T10:24:50.735Z,49.80
2018-09-06T10:27:19.344Z,49.50
2018-09-06T10:29:47.868Z,49.40
2018-09-06T10:32:16.495Z,48.90
2018-09-06T10:34:46.326Z,48.50
2018-09-06T10:37:14.893Z,49.40
2018-09-06T10:39:44.040Z,48.50
2018-09-06T10:42:12.616Z,48.70
2018-09-06T10:44:41.209Z,48.00
2018-09-06T10:47:09.729Z,47.50
2018-09-06T10:49:38.295Z,46.50
2018-09-06T10:52:06.878Z,46.10
2018-09-06T10:54:35.395Z,46.30
2018-09-06T10:57:04.021Z,45.00
2018-09-06T10:59:32.584Z,43.40
2018-09-06T11:02:01.245Z,42.20
2018-09-06T11:04:30.142Z,41.50
2018-09-06T11:06:58.817Z,40.80
2018-09-06T11:09:27.432Z,40.00
2018-09-06T11:11:55.957Z,39.60
2018-09-06T11:14:24.646Z,39.00
2018-09-06T11:16:53.240Z,38.40
2018-09-06T11:19:21.820Z,38.20
2018-09-06T11:21:50.506Z,37.90
2018-09-06T11:24:18.955Z,37.50
2018-09-06T11:26:47.477Z,37.30
2018-09-06T11:29:16.172Z,37.00
2018-09-06T11:31:45.973Z,37.10
2018-09-06T11:34:15.946Z,36.50
2018-09-06T11:36:44.640Z,36.20
2018-09-06T11:39:13.294Z,35.80
2018-09-06T11:41:41.918Z,36.00
2018-09-06T11:44:10.881Z,35.70
2018-09-06T11:46:39.707Z,35.30
2018-09-06T11:49:09.407Z,34.20
2018-09-06T11:51:37.993Z,33.60
2018-09-06T11:54:06.759Z,33.80
2018-09-06T11:56:36.169Z,33.10
2018-09-06T11:59:04.991Z,32.20
2018-09-06T12:01:33.722Z,31.70
2018-09-06T12:04:02.412Z,31.30
2018-09-06T12:06:30.932Z,31.20
2018-09-06T12:08:59.916Z,30.80
2018-09-06T12:11:28.901Z,30.30
2018-09-06T12:13:57.621Z,30.00
2018-09-06T12:16:26.323Z,29.80
2018-09-06T12:18:54.879Z,29.70
2018-09-06T12:21:23.724Z,30.20
2018-09-06T12:23:52.392Z,30.30
2018-09-06T12:26:21.360Z,31.30
2018-09-06T12:28:50.057Z,30.50
2018-09-06T12:31:19.080Z,30.20
2018-09-06T12:33:47.722Z,30.00
2018-09-06T12:36:16.868Z,29.80
2018-09-06T12:38:45.458Z,30.40
2018-09-06T12:41:14.004Z,31.10
2018-09-06T12:43:43.037Z,32.10
2018-09-06T12:46:11.785Z,33.20
2018-09-06T12:48:40.374Z,34.60
2018-09-06T12:51:09.355Z,35.90
2018-09-06T12:53:37.976Z,37.10
2018-09-06T12:56:06.606Z,37.70
2018-09-06T12:58:35.563Z,38.20
2018-09-06T13:01:04.132Z,38.80
2018-09-06T13:03:32.665Z,38.80
2018-09-06T13:06:01.342Z,39.20
2018-09-06T13:08:29.967Z,39.00
2018-09-06T13:10:59.758Z,38.70
2018-09-06T13:13:28.470Z,38.10
2018-09-06T13:16:06.363Z,37.20
2018-09-06T13:18:35.176Z,37.50
2018-09-06T13:21:03.707Z,37.20
2018-09-06T13:23:32.251Z,37.00
2018-09-06T13:26:00.805Z,36.70
2018-09-06T13:28:29.865Z,35.20
2018-09-06T13:30:58.428Z,33.90
2018-09-06T13:33:27.496Z,32.40
2018-09-06T13:35:56.326Z,32.10
2018-09-06T13:38:24.864Z,32.20
2018-09-06T13:40:53.416Z,33.50
2018-09-06T13:43:22.029Z,34.90
2018-09-06T13:45:50.998Z,36.10
2018-09-06T13:48:19.576Z,38.20
2018-09-06T13:50:48.216Z,39.50
2018-09-06T13:53:16.779Z,40.40
2018-09-06T13:55:45.350Z,41.20
2018-09-06T13:58:13.882Z,41.80
2018-09-06T14:00:42.462Z,42.50
2018-09-06T14:03:10.967Z,43.00
2018-09-06T14:05:39.560Z,42.50
2018-09-06T14:08:08.139Z,41.50
2018-09-06T14:10:36.710Z,41.80
2018-09-06T14:13:05.229Z,41.80
2018-09-06T14:15:33.788Z,42.20
2018-09-06T14:18:02.292Z,44.40
2018-09-06T14:20:30.843Z,46.40
2018-09-06T14:22:59.355Z,48.00
2018-09-06T14:25:27.910Z,48.40
2018-09-06T14:27:56.762Z,48.20
2018-09-06T14:30:25.323Z,49.20
2018-09-06T14:32:53.831Z,50.00
2018-09-06T14:35:22.372Z,50.60
2018-09-06T14:37:50.894Z,53.50
2018-09-06T14:40:19.500Z,57.50
2018-09-06T14:42:48.066Z,65.10
2018-09-06T14:45:16.812Z,74.30
2018-09-06T14:47:45.468Z,81.10
2018-09-06T14:50:14.034Z,83.10
2018-09-06T14:52:42.609Z,86.90
2018-09-06T14:55:11.141Z,88.50
2018-09-06T14:57:39.696Z,90.20
2018-09-06T15:00:08.284Z,91.00
2018-09-06T15:02:36.856Z,91.80
2018-09-06T15:05:05.441Z,92.60
2018-09-06T15:07:34.022Z,93.10
2018-09-06T15:10:02.792Z,93.30
2018-09-06T15:12:31.332Z,93.80
2018-09-06T15:14:59.856Z,94.20
2018-09-06T15:17:28.490Z,93.60
2018-09-06T15:19:57.069Z,93.10
2018-09-06T15:22:25.728Z,92.50
2018-09-06T15:24:54.434Z,92.40
2018-09-06T15:27:23.016Z,92.10
2018-09-06T15:29:51.625Z,92.50
2018-09-06T15:32:20.180Z,92.10
2018-09-06T15:34:48.714Z,92.00
2018-09-06T15:37:17.278Z,90.90
2018-09-06T15:39:45.908Z,90.00
2018-09-06T15:42:14.456Z,88.80
2018-09-06T15:44:43.013Z,86.40
2018-09-06T15:47:11.545Z,89.00
2018-09-06T15:49:40.279Z,89.50
2018-09-06T15:52:08.914Z,88.30
2018-09-06T15:54:37.494Z,87.50
2018-09-06T15:57:06.151Z,86.00
2018-09-06T16:00:38.893Z,87.40
2018-09-06T16:03:07.458Z,87.90
2018-09-06T16:05:36.016Z,87.10
2018-09-06T16:08:04.629Z,86.50
2018-09-06T16:10:33.166Z,82.30
2018-09-06T16:13:01.729Z,82.00
2018-09-06T16:15:30.243Z,81.90
2018-09-06T16:17:58.951Z,81.50
2018-09-06T16:20:27.471Z,80.00
2018-09-06T16:22:56.100Z,79.90
2018-09-06T16:25:24.666Z,80.70
2018-09-06T16:27:53.258Z,79.90
2018-09-06T16:30:21.899Z,79.30
2018-09-06T16:32:50.410Z,79.90
2018-09-06T16:35:18.925Z,80.40
2018-09-06T16:37:47.502Z,79.80
2018-09-06T16:40:16.025Z,80.20
2018-09-06T16:42:44.561Z,81.00
2018-09-06T16:45:13.100Z,81.70
2018-09-06T16:47:41.633Z,80.70
2018-09-06T16:50:10.138Z,80.10
2018-09-06T16:52:38.676Z,81.00
2018-09-06T16:55:07.361Z,81.70
2018-09-06T16:57:36.005Z,81.60
2018-09-06T17:00:04.616Z,81.80
2018-09-06T17:02:33.168Z,82.60
2018-09-06T17:05:01.779Z,81.50
2018-09-06T17:07:30.384Z,81.30
2018-09-06T17:09:59.004Z,81.10
2018-09-06T17:12:27.598Z,80.70
2018-09-06T17:14:56.169Z,81.70
2018-09-06T17:17:24.795Z,81.60
2018-09-06T17:19:53.344Z,82.10
2018-09-06T17:22:21.889Z,81.90
2018-09-06T17:24:50.545Z,82.80
2018-09-06T17:27:19.096Z,82.90
2018-09-06T17:29:47.658Z,82.20
2018-09-06T17:32:16.226Z,82.80
2018-09-06T17:34:45.044Z,83.10
2018-09-06T17:37:13.566Z,83.10
2018-09-06T17:39:42.133Z,83.70
2018-09-06T17:42:10.731Z,84.20
2018-09-06T17:44:39.604Z,84.60
2018-09-06T17:47:08.139Z,85.30
2018-09-06T17:49:36.655Z,85.30
2018-09-06T17:52:06.212Z,85.40
2018-09-06T17:54:34.832Z,85.90
2018-09-06T17:57:03.379Z,86.90
2018-09-06T17:59:31.935Z,86.70
2018-09-06T18:02:00.933Z,87.40
2018-09-06T18:04:29.576Z,88.00
2018-09-06T18:06:58.101Z,88.40
2018-09-06T18:09:26.682Z,88.40
2018-09-06T18:11:55.251Z,88.80
2018-09-06T18:14:24.068Z,89.10
2018-09-06T18:16:52.628Z,88.70
2018-09-06T18:19:21.208Z,89.60
2018-09-06T18:21:49.748Z,90.10
2018-09-06T18:24:18.371Z,90.50
2018-09-06T18:26:46.963Z,90.50
2018-09-06T18:29:15.551Z,90.70
2018-09-06T18:31:44.234Z,91.00
2018-09-06T18:34:12.770Z,91.10
2018-09-06T18:36:41.347Z,91.20
2018-09-06T18:39:09.947Z,91.40
2018-09-06T18:41:38.488Z,91.20
2018-09-06T18:44:07.105Z,91.30
2018-09-06T18:46:35.612Z,91.30
2018-09-06T18:49:04.214Z,91.40
2018-09-06T18:51:32.783Z,91.70
2018-09-06T18:54:01.357Z,91.60
2018-09-06T18:56:29.917Z,91.80
2018-09-06T18:58:58.508Z,91.80
2018-09-06T19:01:27.050Z,92.00
2018-09-06T19:03:55.604Z,91.90
2018-09-06T19:06:24.198Z,91.90
2018-09-06T19:08:52.725Z,91.90
2018-09-06T19:11:22.414Z,91.90
2018-09-06T19:13:50.997Z,91.90
2018-09-06T19:16:19.540Z,91.90
2018-09-06T19:18:48.077Z,91.80
2018-09-06T19:21:16.657Z,91.80
2018-09-06T19:23:45.168Z,91.90
2018-09-06T19:26:13.772Z,91.80
2018-09-06T19:28:42.294Z,91.90
2018-09-06T19:31:10.857Z,91.80
2018-09-06T19:33:39.383Z,91.90
2018-09-06T19:36:08.087Z,91.80
2018-09-06T19:38:36.607Z,91.90
2018-09-06T19:41:05.176Z,92.10
2018-09-06T19:43:33.711Z,92.10
2018-09-06T19:46:02.437Z,92.00
2018-09-06T19:48:30.975Z,92.10
2018-09-06T19:50:59.523Z,92.10
2018-09-06T19:53:28.081Z,92.00
2018-09-06T19:55:56.645Z,92.10
2018-09-06T19:58:25.169Z,91.90
2018-09-06T20:00:53.732Z,92.10
2018-09-06T20:03:22.276Z,91.80
2018-09-06T20:05:50.940Z,91.80
2018-09-06T20:08:19.459Z,91.90
2018-09-06T20:10:48.001Z,91.90
2018-09-06T20:13:16.573Z,91.90
2018-09-06T20:15:45.109Z,92.00
2018-09-06T20:18:13.642Z,92.10
2018-09-06T20:20:42.516Z,92.00
2018-09-06T20:23:11.107Z,92.10
2018-09-06T20:25:39.674Z,92.10
2018-09-06T20:28:08.363Z,92.20
2018-09-06T20:30:36.923Z,92.20
2018-09-06T20:33:05.480Z,92.30
2018-09-06T20:35:34.065Z,92.40
2018-09-06T20:38:02.679Z,92.40
2018-09-06T20:40:31.257Z,92.10
2018-09-06T20:42:59.856Z,92.60
2018-09-06T20:45:28.397Z,92.80
2018-09-06T20:47:56.919Z,93.00
2018-09-06T20:50:25.886Z,93.00
2018-09-06T20:52:54.449Z,93.10
2018-09-06T20:55:23.080Z,93.40
2018-09-06T20:57:51.628Z,93.10
2018-09-06T21:00:20.152Z,93.10
2018-09-06T21:02:48.697Z,93.10
2018-09-06T21:05:17.260Z,93.20
2018-09-06T21:07:45.845Z,93.30
2018-09-06T21:10:14.400Z,93.50
2018-09-06T21:12:42.959Z,93.50
2018-09-06T21:15:11.516Z,94.00
2018-09-06T21:17:40.047Z,94.00
2018-09-06T21:20:08.615Z,94.40
2018-09-06T21:22:37.170Z,94.30
2018-09-06T21:25:05.714Z,94.30
2018-09-06T21:27:34.244Z,94.40
2018-09-06T21:30:02.902Z,94.50
2018-09-06T21:32:31.555Z,94.40
2018-09-06T21:35:00.197Z,94.30
2018-09-06T21:37:28.837Z,94.50
2018-09-06T21:39:57.503Z,94.40
2018-09-06T21:42:26.081Z,94.40
2018-09-06T21:44:54.589Z,94.30
2018-09-06T21:47:23.159Z,94.50
2018-09-06T21:49:51.705Z,94.50
2018-09-06T21:52:20.246Z,94.30
2018-09-06T21:54:48.757Z,94.70
2018-09-06T21:57:17.303Z,94.30
2018-09-06T21:59:45.844Z,94.40
2018-09-06T22:02:19.774Z,94.40
2018-09-06T22:04:48.369Z,94.50
2018-09-06T22:07:16.940Z,94.60
2018-09-06T22:09:45.488Z,94.60
2018-09-06T22:12:17.579Z,94.60
2018-09-06T22:14:47.895Z,94.80
2018-09-06T22:17:16.700Z,94.80
2018-09-06T22:19:45.767Z,94.90
2018-09-06T22:22:14.342Z,94.90
2018-09-06T22:24:43.655Z,94.80
2018-09-06T22:27:12.308Z,94.90
2018-09-06T22:29:40.836Z,94.90
2018-09-06T22:32:09.552Z,94.90
2018-09-06T22:34:38.106Z,94.80
2018-09-06T22:37:06.796Z,94.80
2018-09-06T22:39:38.401Z,94.60
2018-09-06T22:42:09.186Z,94.60
2018-09-06T22:44:40.841Z,94.80
2018-09-06T22:47:11.563Z,95.00
2018-09-06T22:49:42.693Z,95.10
2018-09-06T22:52:13.770Z,95.20
2018-09-06T22:54:43.836Z,95.20
2018-09-06T22:57:12.475Z,95.30
2018-09-06T22:59:41.011Z,95.20
2018-09-06T23:02:09.557Z,95.10
2018-09-06T23:04:38.119Z,94.90
2018-09-06T23:07:06.697Z,95.00
2018-09-06T23:09:35.284Z,95.00
2018-09-06T23:12:03.839Z,94.90
2018-09-06T23:14:32.398Z,95.20
2018-09-06T23:17:01.042Z,94.70
2018-09-06T23:19:29.672Z,94.60
2018-09-06T23:21:58.205Z,94.50
2018-09-06T23:24:26.777Z,94.70
2018-09-06T23:26:55.287Z,94.80
2018-09-06T23:29:23.832Z,94.70
2018-09-06T23:31:52.409Z,94.70
2018-09-06T23:34:20.954Z,94.70
2018-09-06T23:36:49.517Z,94.70
2018-09-06T23:39:18.423Z,94.60
2018-09-06T23:41:46.943Z,94.60
2018-09-06T23:44:15.485Z,94.50
2018-09-06T23:46:44.052Z,94.30
2018-09-06T23:49:12.632Z,94.20
2018-09-06T23:51:41.183Z,94.20
2018-09-06T23:54:09.728Z,94.30
2018-09-06T23:56:38.269Z,94.30
2018-09-06T23:59:06.819Z,94.30
